Time;durP1;ratioP1;P1;durP2;ratioP2;P2;SDS_P1;SDS_P2;PMS_P1;PMS_P2;Temp;Humidity;BMP_temperature;BMP_pressure;BME280_temperature;BME280_humidity;BME280_pressure;Samples;Min_cycle;Max_cycle;Signal;HPM_P1;HPM_P2
2023/11/20 00:01:33;;;;;;;27.15;4.63;;;;;;;-146.27;81.03;31165.00;5097287;28;20113;-68
2023/11/20 00:04:00;;;;;;;17.90;2.42;;;;;;;-146.27;81.53;31236.38;5093862;28;20028;-68
2023/11/20 00:06:26;;;;;;;24.83;2.65;;;;;;;-146.27;81.73;31149.13;5100623;28;20085;-67
2023/11/20 00:08:52;;;;;;;22.50;2.78;;;;;;;-146.27;83.75;31331.56;5098601;28;20016;-68
2023/11/20 00:11:18;;;;;;;22.25;3.38;;;;;;;-146.27;84.91;31400.97;5093721;28;20078;-69
2023/11/20 00:13:44;;;;;;;29.50;3.30;;;;;;;-146.27;85.11;31331.56;5101779;28;20020;-69
2023/11/20 00:16:11;;;;;;;25.55;3.10;;;;;;;-146.27;85.83;31498.16;5108112;28;20066;-69
2023/11/20 00:18:37;;;;;;;24.83;4.38;;;;;;;-146.27;86.42;31533.84;5107015;28;20100;-67
2023/11/20 00:21:03;;;;;;;26.40;3.88;;;;;;;-146.27;86.13;31496.16;5104684;28;20028;-69
2023/11/20 00:23:28;;;;;;;24.67;3.40;;;;;;;-146.27;86.55;31545.75;5110434;28;20028;-68
2023/11/20 00:25:54;;;;;;;15.85;2.72;;;;;;;-146.27;87.08;31525.91;5101324;28;20027;-69
2023/11/20 00:28:19;;;;;;;26.42;3.08;;;;;;;-146.27;86.48;31500.13;5098847;28;20071;-70
2023/11/20 00:30:44;;;;;;;27.45;3.40;;;;;;;-146.27;87.19;31609.22;5104728;28;20023;-70
2023/11/20 00:33:10;;;;;;;25.45;4.50;;;;;;;-146.27;85.97;31565.59;5096311;28;20644;-68
2023/11/20 00:35:35;;;;;;;16.75;3.03;;;;;;;-146.27;85.77;31533.84;5089324;28;20038;-69
2023/11/20 00:38:00;;;;;;;17.13;2.42;;;;;;;-146.27;84.78;31502.13;5093416;28;20143;-69
2023/11/20 00:40:26;;;;;;;24.27;3.38;;;;;;;-146.27;85.32;31593.34;5097813;28;20479;-69
2023/11/20 00:42:52;;;;;;;21.88;3.15;;;;;;;-146.27;84.84;31468.41;5095073;28;20107;-69
2023/11/20 00:45:17;;;;;;;27.20;4.10;;;;;;;-146.27;86.40;31660.78;5099301;28;20035;-68
2023/11/20 00:47:43;;;;;;;24.05;3.00;;;;;;;-146.27;86.76;31541.78;5105162;28;20027;-68
2023/11/20 00:50:09;;;;;;;25.23;3.63;;;;;;;-146.27;87.62;31579.47;5077700;28;20031;-67
2023/11/20 00:52:35;;;;;;;23.45;3.15;;;;;;;-146.27;87.81;31549.72;5101040;28;20028;-69
2023/11/20 00:55:09;;;;;;;30.50;4.15;;;;;;;-146.27;88.50;31577.47;5095055;28;20036;-69
2023/11/20 00:57:35;;;;;;;26.92;3.00;;;;;;;-146.27;89.94;31656.81;5095262;28;20383;-68
2023/11/20 01:00:01;;;;;;;26.05;3.15;;;;;;;-146.27;90.13;31698.47;5090218;28;20031;-70
2023/11/20 01:02:26;;;;;;;21.13;3.08;;;;;;;-146.27;90.16;31648.88;5096434;28;20047;-69
2023/11/20 01:04:52;;;;;;;25.38;2.75;;;;;;;-146.27;90.43;31755.97;5105248;28;20475;-68
2023/11/20 01:07:17;;;;;;;28.75;3.60;;;;;;;-146.27;89.95;31700.44;5104559;28;20035;-68
2023/11/20 01:09:42;;;;;;;33.40;3.95;;;;;;;-146.27;91.31;31835.31;5103863;28;20023;-69
2023/11/20 01:12:08;;;;;;;21.05;3.13;;;;;;;-146.27;91.28;31775.81;5097733;28;20023;-69
2023/11/20 01:14:33;;;;;;;29.95;3.38;;;;;;;-146.27;90.93;31845.22;5096229;28;20618;-68
2023/11/20 01:16:58;;;;;;;26.27;4.10;;;;;;;-146.27;90.80;31716.31;5094772;28;20094;-69
2023/11/20 01:19:24;;;;;;;34.97;3.78;;;;;;;-146.27;90.96;31720.28;5096220;28;20040;-68
2023/11/20 01:21:49;;;;;;;19.30;3.60;;;;;;;-146.27;91.82;31736.16;5097141;28;20463;-69
2023/11/20 01:24:15;;;;;;;33.10;3.90;;;;;;;-146.27;91.71;31754.00;5100021;28;20032;-66
2023/11/20 01:26:40;;;;;;;31.38;3.80;;;;;;;-146.27;92.25;31795.66;5094368;28;20066;-67
2023/11/20 01:29:07;;;;;;;31.55;3.63;;;;;;;-146.27;92.63;31791.69;5105506;28;20047;-67
2023/11/20 01:31:32;;;;;;;30.30;3.50;;;;;;;-146.27;91.37;31680.63;5101154;28;20027;-68
2023/11/20 01:33:58;;;;;;;40.90;4.78;;;;;;;-146.27;91.45;31676.66;5099753;28;20476;-68
2023/11/20 01:36:23;;;;;;;32.08;3.50;;;;;;;-146.27;91.63;31690.53;5098525;28;20027;-68
2023/11/20 01:38:52;;;;;;;32.25;4.22;;;;;;;-146.27;91.75;31755.97;5082628;28;20024;-67
2023/11/20 01:41:17;;;;;;;33.65;3.80;;;;;;;-146.27;92.01;31734.16;5104501;28;20058;-69
2023/11/20 01:43:43;;;;;;;19.77;4.50;;;;;;;-146.27;91.43;31708.38;5096558;28;20024;-67
2023/11/20 01:46:11;;;;;;;37.20;4.05;;;;;;;-146.27;92.49;31882.91;5098554;28;20032;-68
2023/11/20 01:48:37;;;;;;;32.58;3.70;;;;;;;-146.27;92.32;31815.47;5105867;28;20027;-69
2023/11/20 01:51:04;;;;;;;31.65;3.45;;;;;;;-146.27;91.69;31688.53;5100929;28;20027;-68
2023/11/20 01:53:31;;;;;;;23.23;3.17;;;;;;;-146.27;91.48;31704.41;5104479;28;20023;-68
2023/11/20 01:55:57;;;;;;;29.17;3.05;;;;;;;-146.27;90.68;31668.72;5098510;28;20507;-68
2023/11/20 01:58:25;;;;;;;22.50;3.35;;;;;;;-146.27;91.44;31795.66;5105037;28;20027;-68
2023/11/20 02:00:51;;;;;;;33.63;3.95;;;;;;;-146.27;91.70;31807.53;5106293;28;20020;-68
2023/11/20 02:03:17;;;;;;;20.73;3.47;;;;;;;-146.27;92.16;31851.19;5099141;28;20097;-68
2023/11/20 02:05:43;;;;;;;24.75;3.42;;;;;;;-146.27;92.84;31835.31;5099239;28;20060;-68
2023/11/20 02:08:09;;;;;;;36.60;3.50;;;;;;;-146.27;92.15;31841.25;5101182;28;20027;-68
2023/11/20 02:10:34;;;;;;;26.90;3.33;;;;;;;-146.27;91.58;31795.66;5098774;28;20376;-68
2023/11/20 02:13:02;;;;;;;30.33;3.50;;;;;;;-146.27;91.57;31738.13;5097656;28;20026;-68
2023/11/20 02:15:27;;;;;;;23.25;3.05;;;;;;;-146.27;91.56;31938.44;5092402;28;21174;-68
2023/11/20 02:17:52;;;;;;;26.48;3.53;;;;;;;-146.27;90.99;31835.31;5107243;28;20050;-68
2023/11/20 02:20:18;;;;;;;23.77;3.08;;;;;;;-146.27;91.04;31863.09;5105111;28;20499;-69
2023/11/20 02:22:43;;;;;;;22.10;3.08;;;;;;;-146.27;89.83;31801.59;5102287;28;20024;-68
2023/11/20 02:25:08;;;;;;;29.75;3.28;;;;;;;-146.27;89.99;31791.69;5101200;28;20397;-68
2023/11/20 02:27:46;;;;;;;26.15;3.03;;;;;;;-146.27;89.76;31799.63;5105358;28;20028;-67
2023/11/20 02:30:12;;;;;;;30.90;3.40;;;;;;;-146.27;89.12;31706.41;5093560;28;20031;-69
2023/11/20 02:32:37;;;;;;;21.88;3.17;;;;;;;-146.27;89.43;31771.84;5102619;28;20035;-70
2023/11/20 02:35:04;;;;;;;27.63;3.80;;;;;;;-146.27;89.15;31728.22;5106244;28;20514;-69
2023/11/20 02:37:30;;;;;;;25.35;3.30;;;;;;;-146.27;88.67;31732.19;5099966;28;20091;-68
2023/11/20 02:39:55;;;;;;;19.05;3.47;;;;;;;-146.27;88.39;31714.34;5106913;28;20106;-68
2023/11/20 02:42:21;;;;;;;18.60;2.63;;;;;;;-146.27;88.13;31752.00;5107823;28;20035;-69
2023/11/20 02:44:47;;;;;;;18.60;3.20;;;;;;;-146.27;87.56;31724.25;5098644;28;20506;-67
2023/11/20 02:47:13;;;;;;;30.58;3.15;;;;;;;-146.27;87.74;31670.69;5095665;28;20036;-69
2023/11/20 02:49:39;;;;;;;24.33;2.95;;;;;;;-146.27;87.23;31755.97;5103725;28;20126;-69
2023/11/20 02:52:06;;;;;;;22.95;3.17;;;;;;;-146.27;86.83;31706.41;5095001;28;20504;-69
2023/11/20 02:54:33;;;;;;;18.02;3.03;;;;;;;-146.27;86.46;31761.94;5105336;28;20035;-69
2023/11/20 02:56:58;;;;;;;26.25;3.00;;;;;;;-146.27;86.01;31654.84;5099057;28;20479;-68
2023/11/20 02:59:24;;;;;;;22.30;3.85;;;;;;;-146.27;85.03;31502.13;5095868;28;20038;-67
2023/11/20 03:01:49;;;;;;;29.15;3.15;;;;;;;-146.27;85.98;31740.13;5101169;28;20023;-67
2023/11/20 03:04:15;;;;;;;25.85;4.03;;;;;;;-146.27;85.24;31676.66;5103665;28;20058;-68
2023/11/20 03:06:41;;;;;;;24.05;3.50;;;;;;;-146.27;85.28;31712.34;5103657;28;20027;-68
2023/11/20 03:09:07;;;;;;;17.80;3.35;;;;;;;-146.27;85.31;31714.34;5101039;28;20164;-68
2023/11/20 03:11:33;;;;;;;18.90;2.30;;;;;;;-146.27;84.32;31625.09;5102281;28;20038;-69
2023/11/20 03:13:59;;;;;;;20.80;3.67;;;;;;;-146.27;84.91;31752.00;5107998;28;20023;-69
2023/11/20 03:16:24;;;;;;;21.85;2.80;;;;;;;-146.27;84.01;31565.59;5092252;28;20488;-69
2023/11/20 03:18:50;;;;;;;20.60;2.47;;;;;;;-146.27;83.82;31565.59;5097176;28;20078;-69
2023/11/20 03:21:16;;;;;;;18.50;2.75;;;;;;;-146.27;84.49;31692.50;5097835;28;20392;-71
2023/11/20 03:23:41;;;;;;;21.17;3.38;;;;;;;-146.27;83.76;31611.19;5091778;28;20684;-69
2023/11/20 03:26:07;;;;;;;21.08;3.55;;;;;;;-146.27;83.53;31644.91;5092471;28;20463;-68
2023/11/20 03:28:34;;;;;;;19.35;2.75;;;;;;;-146.27;83.49;31644.91;5112556;28;20483;-69
2023/11/20 03:30:59;;;;;;;17.83;3.38;;;;;;;-146.27;83.63;31613.19;5100946;28;20028;-70
2023/11/20 03:33:24;;;;;;;22.13;2.67;;;;;;;-146.27;83.33;31605.25;5098043;28;20020;-70
2023/11/20 03:35:50;;;;;;;14.43;2.88;;;;;;;-146.27;83.10;31605.25;5084514;28;20042;-70
2023/11/20 03:38:15;;;;;;;26.90;3.03;;;;;;;-146.27;82.76;31593.34;5103193;28;20035;-70
2023/11/20 03:40:42;;;;;;;20.83;2.58;;;;;;;-146.27;82.50;31537.81;5094442;28;20039;-69
2023/11/20 03:43:08;;;;;;;16.05;2.58;;;;;;;-146.27;82.97;31603.25;5096914;28;20020;-70
2023/11/20 03:45:33;;;;;;;19.92;2.97;;;;;;;-146.27;82.42;31633.00;5107537;28;20384;-70
2023/11/20 03:47:59;;;;;;;21.42;3.90;;;;;;;-146.27;81.84;31490.22;5107154;28;20072;-70
2023/11/20 03:50:24;;;;;;;29.73;3.15;;;;;;;-146.27;81.78;31533.84;5103031;28;20019;-70
2023/11/20 03:52:49;;;;;;;18.13;2.85;;;;;;;-146.27;81.99;31635.00;5098001;28;20028;-70
2023/11/20 03:55:15;;;;;;;20.75;2.40;;;;;;;-146.27;81.34;31506.09;5083405;28;20035;-70
2023/11/20 03:57:41;;;;;;;18.77;3.03;;;;;;;-146.27;81.34;31581.44;5093636;28;20036;-70
2023/11/20 04:00:07;;;;;;;26.67;3.00;;;;;;;-146.27;81.51;31625.09;5094171;28;20483;-70
2023/11/20 04:02:33;;;;;;;22.42;3.30;;;;;;;-146.27;81.62;31607.22;5103706;28;20066;-70
2023/11/20 04:04:58;;;;;;;21.42;2.83;;;;;;;-146.27;81.60;31656.81;5096554;28;20070;-70
2023/11/20 04:07:24;;;;;;;15.45;3.10;;;;;;;-146.27;80.86;31557.66;5097542;28;20055;-70
2023/11/20 04:09:49;;;;;;;18.27;2.28;;;;;;;-146.27;80.45;31557.66;5100152;28;20022;-70
2023/11/20 04:12:14;;;;;;;17.45;2.10;;;;;;;-146.27;80.29;31535.84;5092858;28;20027;-71
2023/11/20 04:14:40;;;;;;;26.30;5.57;;;;;;;-146.27;80.31;31529.88;5099618;28;20501;-70
2023/11/20 04:17:05;;;;;;;28.80;2.55;;;;;;;-146.27;80.22;31490.22;5076296;28;20044;-70
2023/11/20 04:19:31;;;;;;;13.45;2.72;;;;;;;-146.27;80.70;31557.66;5100253;28;20019;-70
2023/11/20 04:21:56;;;;;;;27.20;3.45;;;;;;;-146.27;81.03;31508.06;5096784;28;20038;-70
2023/11/20 04:24:21;;;;;;;21.40;3.00;;;;;;;-146.27;81.21;31573.53;5096059;28;20020;-70
2023/11/20 04:26:47;;;;;;;22.42;3.00;;;;;;;-146.27;82.06;31636.97;5096694;28;20015;-71
2023/11/20 04:29:13;;;;;;;25.45;3.05;;;;;;;-146.27;82.20;31607.22;5097086;28;20055;-70
2023/11/20 04:31:38;;;;;;;17.92;2.50;;;;;;;-146.27;82.34;31682.59;5099685;28;20098;-71
2023/11/20 04:34:05;;;;;;;19.35;2.60;;;;;;;-146.27;82.36;31613.19;5096365;28;20041;-70
2023/11/20 04:36:30;;;;;;;22.60;2.60;;;;;;;-146.27;82.53;31724.25;5098685;28;20028;-70
2023/11/20 04:38:55;;;;;;;14.75;2.38;;;;;;;-146.27;82.66;31763.91;5103836;28;20026;-70
2023/11/20 04:41:21;;;;;;;19.10;2.85;;;;;;;-146.27;82.03;31698.47;5106458;28;20024;-70
2023/11/20 04:43:46;;;;;;;15.32;2.10;;;;;;;-146.27;81.46;31700.44;5095036;28;20032;-71
2023/11/20 04:46:12;;;;;;;23.17;3.70;;;;;;;-146.27;80.94;31611.19;5104898;28;20028;-70
2023/11/20 04:48:38;;;;;;;13.93;2.13;;;;;;;-146.27;80.89;31615.16;5098767;28;20099;-70
2023/11/20 04:51:04;;;;;;;16.60;2.80;;;;;;;-146.27;80.41;31585.41;5089551;28;20106;-70
2023/11/20 04:53:29;;;;;;;18.73;2.75;;;;;;;-146.27;80.83;31656.81;5090391;28;20032;-70
2023/11/20 04:55:54;;;;;;;20.65;2.90;;;;;;;-146.27;80.83;31712.34;5104023;28;20024;-69
2023/11/20 04:58:21;;;;;;;12.35;2.50;;;;;;;-146.27;80.33;31638.97;5101402;28;20032;-70
2023/11/20 05:00:51;;;;;;;21.77;3.25;;;;;;;-146.27;80.92;31712.34;5094050;28;20066;-70
2023/11/20 05:03:16;;;;;;;14.68;2.67;;;;;;;-146.27;79.62;31518.00;5100994;28;20619;-70
2023/11/20 05:05:42;;;;;;;22.75;2.75;;;;;;;-146.27;79.88;31666.72;5099738;28;20034;-70
2023/11/20 05:08:08;;;;;;;21.70;3.72;;;;;;;-146.27;79.95;31696.47;5099743;28;20092;-70
2023/11/20 05:10:34;;;;;;;17.00;2.33;;;;;;;-146.27;79.62;31636.97;5095785;28;20020;-70
2023/11/20 05:12:59;;;;;;;24.48;2.88;;;;;;;-146.27;80.10;31704.41;5091839;28;20027;-71
2023/11/20 05:15:24;;;;;;;15.98;3.38;;;;;;;-146.27;80.51;31684.59;5096785;28;20024;-70
2023/11/20 05:17:50;;;;;;;19.83;2.63;;;;;;;-146.27;80.58;31652.84;5096167;28;20135;-70
2023/11/20 05:20:16;;;;;;;14.70;2.25;;;;;;;-146.27;80.87;31734.16;5096763;28;20403;-69
2023/11/20 05:22:41;;;;;;;21.45;2.40;;;;;;;-146.27;80.48;31662.75;5096283;28;20356;-71
2023/11/20 05:25:07;;;;;;;21.10;3.08;;;;;;;-146.27;80.21;31666.72;5106662;28;20028;-70
2023/11/20 05:27:32;;;;;;;15.45;2.17;;;;;;;-146.27;80.37;31676.66;5097222;28;20024;-69
2023/11/20 05:29:58;;;;;;;25.13;3.40;;;;;;;-146.27;80.46;31720.28;5101634;28;20019;-69
2023/11/20 05:32:23;;;;;;;16.70;2.20;;;;;;;-146.27;80.65;31708.38;5090141;28;20023;-70
2023/11/20 05:34:48;;;;;;;19.80;2.90;;;;;;;-146.27;79.55;31633.00;5098317;28;20380;-69
2023/11/20 05:37:14;;;;;;;14.23;2.20;;;;;;;-146.27;80.18;31829.38;5096897;28;20051;-70
2023/11/20 05:39:39;;;;;;;16.13;2.50;;;;;;;-146.27;80.51;31851.19;5091867;28;20106;-71
2023/11/20 05:42:06;;;;;;;19.60;2.83;;;;;;;-146.27;80.65;31799.63;5101540;28;20521;-71
2023/11/20 05:44:32;;;;;;;20.48;2.97;;;;;;;-146.27;80.67;31779.78;5095131;28;20494;-71
2023/11/20 05:46:57;;;;;;;14.65;3.00;;;;;;;-146.27;80.15;31734.16;5107502;28;20105;-71
2023/11/20 05:49:22;;;;;;;33.13;3.22;;;;;;;-146.27;80.48;31813.50;5100617;28;20016;-71
2023/11/20 05:51:48;;;;;;;25.85;2.55;;;;;;;-146.27;80.54;31787.72;5093031;28;21870;-71
2023/11/20 05:54:14;;;;;;;24.67;3.45;;;;;;;-146.27;80.09;31714.34;5084430;28;20089;-71
2023/11/20 05:56:40;;;;;;;21.85;3.03;;;;;;;-146.27;79.79;31716.31;5103877;28;20020;-71
2023/11/20 05:59:08;;;;;;;25.65;3.05;;;;;;;-146.27;79.83;31730.19;5097325;28;20028;-71
2023/11/20 06:01:40;;;;;;;28.35;4.55;;;;;;;-146.27;80.23;31728.22;5093601;28;20031;-70
2023/11/20 06:04:08;;;;;;;29.25;3.67;;;;;;;-146.27;80.41;31748.03;5099221;28;20407;-72
2023/11/20 06:06:37;;;;;;;26.48;4.50;;;;;;;-146.27;80.26;31740.13;5093435;28;20126;-72
2023/11/20 06:09:05;;;;;;;20.83;2.63;;;;;;;-146.27;80.46;31767.88;5090287;28;20024;-72
2023/11/20 06:11:31;;;;;;;24.05;3.10;;;;;;;-146.27;79.17;31640.94;5096954;28;20158;-71
2023/11/20 06:13:58;;;;;;;27.58;4.13;;;;;;;-146.27;79.58;31724.25;5100702;28;20027;-71
2023/11/20 06:16:24;;;;;;;25.90;3.95;;;;;;;-146.27;79.25;31700.44;5105683;28;20055;-71
2023/11/20 06:18:49;;;;;;;22.52;4.70;;;;;;;-146.27;79.72;31710.38;5102174;28;20040;-68
2023/11/20 06:21:15;;;;;;;19.77;3.08;;;;;;;-146.27;79.96;31726.22;5076103;28;20032;-71
2023/11/20 06:23:40;;;;;;;27.85;3.72;;;;;;;-146.27;79.87;31728.22;5097047;28;20028;-71
2023/11/20 06:26:06;;;;;;;28.13;4.07;;;;;;;-146.27;79.32;31688.53;5104171;28;20273;-72
2023/11/20 06:28:32;;;;;;;19.30;2.78;;;;;;;-146.27;80.05;31775.81;5095498;28;20028;-72
2023/11/20 06:30:57;;;;;;;21.50;3.15;;;;;;;-146.27;81.30;31803.59;5096683;28;20058;-71
2023/11/20 06:33:23;;;;;;;35.65;3.85;;;;;;;-146.27;81.43;31763.91;5092613;28;20104;-70
2023/11/20 06:35:48;;;;;;;22.65;4.25;;;;;;;-146.27;81.96;31867.03;5095367;28;20475;-70
2023/11/20 06:38:14;;;;;;;32.42;3.70;;;;;;;-146.27;83.71;31950.34;5095015;28;20040;-70
2023/11/20 06:40:40;;;;;;;31.80;3.88;;;;;;;-146.27;83.25;31890.84;5096858;28;20495;-72
2023/11/20 06:43:06;;;;;;;29.52;4.25;;;;;;;-146.27;83.20;31878.94;5109966;28;20054;-71
2023/11/20 06:45:31;;;;;;;27.02;3.78;;;;;;;-146.27;82.44;31773.81;5087910;28;20019;-69
2023/11/20 06:47:57;;;;;;;22.88;3.47;;;;;;;-146.27;83.71;31942.41;5093551;28;20738;-69
2023/11/20 06:50:24;;;;;;;29.17;4.45;;;;;;;-146.27;83.36;31908.69;5095607;28;20656;-69
2023/11/20 06:52:51;;;;;;;30.52;4.38;;;;;;;-146.27;82.81;31865.06;5102589;28;20165;-69
2023/11/20 06:55:17;;;;;;;25.60;4.50;;;;;;;-146.27;82.94;31871.00;5102640;28;20111;-69
2023/11/20 06:57:44;;;;;;;22.20;3.45;;;;;;;-146.27;83.23;31904.72;5100381;28;20110;-70
2023/11/20 07:00:12;;;;;;;26.15;3.42;;;;;;;-146.27;82.49;31835.31;5096715;28;20498;-72
2023/11/20 07:02:38;;;;;;;33.78;3.45;;;;;;;-146.27;81.98;31833.34;5097539;28;20039;-70
2023/11/20 07:05:04;;;;;;;27.73;3.28;;;;;;;-146.27;81.87;31799.63;5101197;28;20023;-69
2023/11/20 07:07:29;;;;;;;43.45;4.65;;;;;;;-146.27;81.43;31783.75;5092490;28;20047;-70
2023/11/20 07:09:55;;;;;;;38.60;4.28;;;;;;;-146.27;81.43;31775.81;5096473;28;20011;-69
2023/11/20 07:12:21;;;;;;;27.95;3.63;;;;;;;-146.27;81.47;31763.91;5092926;28;20032;-70
2023/11/20 07:14:46;;;;;;;28.45;3.92;;;;;;;-146.27;81.34;31799.63;5095147;28;20623;-69
2023/11/20 07:17:13;;;;;;;25.35;3.45;;;;;;;-146.27;81.72;31878.94;5098981;28;20568;-70
2023/11/20 07:19:42;;;;;;;31.13;4.60;;;;;;;-146.27;81.75;31855.16;5106718;27;20024;-70
2023/11/20 07:22:08;;;;;;;15.65;2.97;;;;;;;-146.27;81.34;31763.91;5103512;27;20019;-70
2023/11/20 07:24:33;;;;;;;31.95;3.22;;;;;;;-146.27;81.79;31880.94;5098847;28;20030;-69
2023/11/20 07:26:58;;;;;;;22.75;4.07;;;;;;;-146.27;81.49;31815.47;5091349;28;20043;-69
2023/11/20 07:29:24;;;;;;;27.75;3.47;;;;;;;-146.27;81.01;31813.50;5099044;28;20488;-69
2023/11/20 07:31:49;;;;;;;23.77;3.17;;;;;;;-146.27;80.32;31738.13;5103140;28;20016;-80
2023/11/20 07:34:16;;;;;;;29.40;3.53;;;;;;;-146.27;79.91;31700.44;5073911;28;20518;-76
2023/11/20 07:36:41;;;;;;;28.30;3.60;;;;;;;-146.27;79.97;31742.09;5097535;28;20153;-70
2023/11/20 07:39:07;;;;;;;20.45;3.17;;;;;;;-146.27;80.02;31728.22;5093333;28;20150;-71
2023/11/20 07:41:33;;;;;;;24.73;3.88;;;;;;;-146.27;79.44;31629.06;5094858;28;20035;-70
2023/11/20 07:43:58;;;;;;;23.17;3.55;;;;;;;-146.27;79.96;31720.28;5106720;28;20023;-70
2023/11/20 07:46:24;;;;;;;26.00;3.80;;;;;;;-146.27;80.28;31736.16;5103337;28;20066;-70
2023/11/20 07:48:50;;;;;;;33.65;5.53;;;;;;;-146.27;80.40;31807.53;5091795;28;20028;-70
2023/11/20 07:51:16;;;;;;;18.13;2.97;;;;;;;-146.27;80.26;31819.44;5095180;28;20035;-69
2023/11/20 07:53:42;;;;;;;34.35;4.38;;;;;;;-146.27;79.86;31716.31;5097961;28;20027;-70
2023/11/20 07:56:08;;;;;;;25.27;3.75;;;;;;;-146.27;79.39;31664.75;5092317;28;20086;-70
2023/11/20 07:58:33;;;;;;;16.83;2.92;;;;;;;-146.27;79.65;31738.13;5095721;28;20040;-70
2023/11/20 08:00:59;;;;;;;20.38;3.42;;;;;;;-146.27;79.31;31754.00;5098920;28;20036;-70
2023/11/20 08:03:25;;;;;;;24.45;3.42;;;;;;;-146.27;79.03;31698.47;5093117;28;20166;-70
2023/11/20 08:05:50;;;;;;;20.42;3.50;;;;;;;-146.27;79.55;31847.22;5097926;28;20499;-70
2023/11/20 08:08:16;;;;;;;18.50;3.58;;;;;;;-146.27;80.07;31890.84;5096656;28;20020;-68
2023/11/20 08:10:41;;;;;;;27.75;3.25;;;;;;;-146.27;79.40;31807.53;5097576;28;20472;-69
2023/11/20 08:13:07;;;;;;;22.20;3.10;;;;;;;-146.27;79.66;31827.38;5096977;28;20436;-69
2023/11/20 08:15:33;;;;;;;27.80;2.90;;;;;;;-146.27;79.36;31811.50;5100249;28;20031;-69
2023/11/20 08:17:58;;;;;;;23.80;3.47;;;;;;;-146.27;79.42;31775.81;5095746;28;20523;-69
2023/11/20 08:20:24;;;;;;;24.88;4.65;;;;;;;-146.27;79.01;31779.78;5097891;28;20395;-71
2023/11/20 08:22:49;;;;;;;21.15;2.95;;;;;;;-146.27;79.75;31873.00;5098213;28;20081;-67
2023/11/20 08:25:15;;;;;;;20.88;3.13;;;;;;;-146.27;80.15;31978.13;5098752;28;20035;-69
2023/11/20 08:27:43;;;;;;;16.10;3.47;;;;;;;-146.27;80.25;31902.75;5099631;28;20024;-70
2023/11/20 08:30:09;;;;;;;34.17;6.28;;;;;;;-146.27;79.44;31825.41;5095386;28;20949;-71
2023/11/20 08:32:35;;;;;;;23.40;4.00;;;;;;;-146.27;79.72;31886.88;5094502;28;20114;-71
2023/11/20 08:35:00;;;;;;;19.85;3.10;;;;;;;-146.27;79.82;31831.34;5102681;28;20027;-70
2023/11/20 08:37:26;;;;;;;33.92;3.83;;;;;;;-146.27;79.17;31795.66;5092823;28;21416;-71
2023/11/20 08:39:51;;;;;;;14.05;2.45;;;;;;;-146.27;80.20;31946.38;5105334;28;20473;-71
2023/11/20 08:42:17;;;;;;;31.65;3.53;;;;;;;-146.27;80.11;31902.75;5100179;28;20495;-70
2023/11/20 08:44:42;;;;;;;22.63;3.70;;;;;;;-146.27;79.70;31783.75;5091576;28;20468;-70
2023/11/20 08:47:08;;;;;;;29.38;2.80;;;;;;;-146.27;79.83;31825.41;5096194;28;20092;-71
2023/11/20 08:49:36;;;;;;;25.95;2.85;;;;;;;-146.27;79.99;31912.66;5092766;28;20020;-70
2023/11/20 08:52:01;;;;;;;20.38;3.22;;;;;;;-146.27;79.95;31849.19;5095761;28;20403;-70
2023/11/20 08:54:26;;;;;;;23.10;3.05;;;;;;;-146.27;79.17;31718.28;5087373;28;20023;-70
2023/11/20 08:56:52;;;;;;;22.27;3.00;;;;;;;-146.27;78.85;31652.84;5095854;28;20027;-71
2023/11/20 08:59:18;;;;;;;22.88;2.53;;;;;;;-146.27;79.14;31700.44;5106180;28;20062;-70
2023/11/20 09:01:45;;;;;;;21.10;3.22;;;;;;;-146.27;79.66;31754.00;5095055;28;20390;-70
2023/11/20 09:04:11;;;;;;;22.00;3.90;;;;;;;-146.27;80.69;31851.19;5098452;28;20027;-71
2023/11/20 09:06:36;;;;;;;31.27;3.90;;;;;;;-146.27;80.25;31732.19;5109481;28;20192;-71
2023/11/20 09:09:04;;;;;;;16.35;2.63;;;;;;;-146.27;79.91;31771.84;5104077;28;20020;-70
2023/11/20 09:11:31;;;;;;;19.75;3.80;;;;;;;-146.27;80.50;31781.75;5110776;28;20039;-71
2023/11/20 09:13:57;;;;;;;22.38;3.40;;;;;;;-146.27;80.53;31750.03;5103691;28;20032;-71
2023/11/20 09:16:22;;;;;;;24.40;3.20;;;;;;;-146.27;80.62;31787.72;5100185;28;20498;-70
2023/11/20 09:18:49;;;;;;;23.95;2.90;;;;;;;-146.27;81.04;31815.47;5086835;28;20100;-70
2023/11/20 09:21:15;;;;;;;25.80;2.95;;;;;;;-146.27;81.85;31847.22;5108717;28;20039;-70
2023/11/20 09:23:42;;;;;;;19.45;2.92;;;;;;;-146.27;84.86;32061.44;5090970;28;20024;-72
2023/11/20 09:26:10;;;;;;;23.52;2.92;;;;;;;-146.27;85.56;32126.88;5092196;28;20028;-71
2023/11/20 09:28:35;;;;;;;21.17;3.58;;;;;;;-146.27;84.92;32109.03;5094249;28;20022;-71
2023/11/20 09:31:02;;;;;;;22.77;3.25;;;;;;;-146.27;84.81;32033.66;5090264;28;20106;-70
2023/11/20 09:33:27;;;;;;;22.42;3.58;;;;;;;-146.27;85.68;32160.59;5090057;28;20055;-71
2023/11/20 09:35:53;;;;;;;20.83;3.25;;;;;;;-146.27;85.90;32184.41;5090790;28;20032;-70
2023/11/20 09:38:18;;;;;;;22.88;2.95;;;;;;;-146.27;85.44;32073.31;5093756;28;20024;-70
2023/11/20 09:40:45;;;;;;;16.05;2.33;;;;;;;-146.27;85.84;32089.19;5095424;28;20033;-70
2023/11/20 09:43:11;;;;;;;36.25;2.90;;;;;;;-146.27;85.68;32073.31;5091770;28;20039;-70
2023/11/20 09:45:39;;;;;;;30.58;4.13;;;;;;;-146.27;86.44;32085.22;5089782;28;20437;-70
2023/11/20 09:48:06;;;;;;;16.33;2.88;;;;;;;-146.27;85.86;32011.84;5106733;28;20081;-70
2023/11/20 09:50:32;;;;;;;21.75;2.85;;;;;;;-146.27;86.13;32009.84;5109604;28;20028;-70
2023/11/20 09:52:59;;;;;;;23.05;3.60;;;;;;;-146.27;87.38;32136.78;5094797;28;20108;-70
2023/11/20 09:55:26;;;;;;;18.58;2.80;;;;;;;-146.27;87.03;32069.34;5089977;28;20472;-70
2023/11/20 09:57:52;;;;;;;27.65;3.13;;;;;;;-146.27;86.33;31936.47;5073221;28;20016;-70
2023/11/20 10:00:18;;;;;;;26.92;4.15;;;;;;;-146.27;85.65;31988.03;5098046;28;20036;-70
2023/11/20 10:02:45;;;;;;;24.35;3.15;;;;;;;-146.27;85.52;31910.69;5091376;28;20100;-71
2023/11/20 10:05:14;;;;;;;26.20;3.97;;;;;;;-146.27;84.61;31748.03;5098471;28;20027;-70
2023/11/20 10:07:41;;;;;;;27.88;3.55;;;;;;;-146.27;84.14;31755.97;5095618;28;20036;-70
2023/11/20 10:10:07;;;;;;;18.95;2.95;;;;;;;-146.27;83.88;31577.47;5089943;28;20161;-70
2023/11/20 10:12:35;;;;;;;28.83;3.30;;;;;;;-146.27;82.95;31573.53;5093552;28;20028;-71
2023/11/20 10:15:01;;;;;;;17.45;2.90;;;;;;;-146.27;82.41;31357.34;5093814;28;20035;-70
2023/11/20 10:17:28;;;;;;;17.98;3.05;;;;;;;-146.27;81.51;31498.16;5104166;28;20415;-70
2023/11/20 10:19:54;;;;;;;21.38;4.03;;;;;;;-146.27;81.27;31478.31;5113956;28;20081;-69
2023/11/20 10:22:24;;;;;;;13.25;2.63;;;;;;;-146.27;81.73;31605.25;5097444;28;20472;-69
2023/11/20 10:24:50;;;;;;;13.88;2.65;;;;;;;-146.27;83.09;31761.94;5095111;28;20028;-70
2023/11/20 10:27:17;;;;;;;18.80;2.83;;;;;;;-146.27;83.55;31807.53;5106217;27;20100;-69
2023/11/20 10:29:42;;;;;;;23.58;4.05;;;;;;;-146.27;83.55;31958.28;5097821;28;20015;-69
2023/11/20 10:32:08;;;;;;;15.48;2.47;;;;;;;-146.27;83.43;31944.41;5112944;28;20019;-69
2023/11/20 10:34:33;;;;;;;24.83;2.22;;;;;;;-146.27;83.33;31966.22;5112451;28;20030;-69
2023/11/20 10:37:08;;;;;;;13.85;2.33;;;;;;;-146.27;83.06;32101.09;5103103;28;20488;-69
2023/11/20 10:39:35;;;;;;;17.67;2.17;;;;;;;-146.27;82.96;32015.81;5093275;28;20437;-68
2023/11/20 10:42:00;;;;;;;22.05;2.53;;;;;;;-146.27;83.49;32073.31;5093697;28;20016;-68
2023/11/20 10:44:26;;;;;;;21.52;2.15;;;;;;;-146.27;83.23;32099.09;5096139;28;20028;-69
2023/11/20 10:46:53;;;;;;;26.25;2.72;;;;;;;-146.27;84.00;32208.22;5098871;28;20364;-70
2023/11/20 10:49:21;;;;;;;19.50;2.75;;;;;;;-146.27;83.89;32087.22;5102147;28;20023;-70
2023/11/20 10:51:56;;;;;;;19.13;2.45;;;;;;;-146.27;83.44;32001.91;5077859;28;20441;-69
2023/11/20 10:54:35;;;;;;;19.85;2.92;;;;;;;-146.27;83.61;31898.78;5095505;28;20024;-68
2023/11/20 10:57:05;;;;;;;24.02;2.78;;;;;;;-146.27;81.55;31847.22;5093296;28;20031;-68
2023/11/20 10:59:35;;;;;;;24.42;3.38;;;;;;;-146.27;81.46;31924.56;5093106;28;20109;-69
2023/11/20 11:02:06;;;;;;;14.73;2.08;;;;;;;-146.27;81.07;31815.47;5092451;28;20059;-69
2023/11/20 11:04:33;;;;;;;26.23;3.35;;;;;;;-146.27;81.03;31799.63;5092493;28;20028;-69